sensor_id;sensor_type;location;lat;lon;timestamp;P1;durP1;ratioP1;P2;durP2;ratioP2
54193;SDS011;40102;50.906;6.972;2023-03-31T00:01:38;2.83;;;0.88;;
54193;SDS011;40102;50.906;6.972;2023-03-31T00:04:09;2.40;;;0.50;;
54193;SDS011;40102;50.906;6.972;2023-03-31T00:06:37;3.80;;;1.25;;
54193;SDS011;40102;50.906;6.972;2023-03-31T00:09:10;1.65;;;0.65;;
54193;SDS011;40102;50.906;6.972;2023-03-31T00:11:38;2.63;;;0.75;;
54193;SDS011;40102;50.906;6.972;2023-03-31T00:14:05;5.22;;;0.90;;
54193;SDS011;40102;50.906;6.972;2023-03-31T00:16:35;3.45;;;0.70;;
54193;SDS011;40102;50.906;6.972;2023-03-31T00:21:28;3.70;;;0.80;;
54193;SDS011;40102;50.906;6.972;2023-03-31T00:23:59;3.90;;;0.60;;
54193;SDS011;40102;50.906;6.972;2023-03-31T00:26:30;2.08;;;0.90;;
54193;SDS011;40102;50.906;6.972;2023-03-31T00:28:57;3.80;;;0.65;;
54193;SDS011;40102;50.906;6.972;2023-03-31T00:31:24;5.82;;;0.77;;
54193;SDS011;40102;50.906;6.972;2023-03-31T00:33:52;3.22;;;0.63;;
54193;SDS011;40102;50.906;6.972;2023-03-31T00:36:22;2.00;;;0.60;;
54193;SDS011;40102;50.906;6.972;2023-03-31T00:38:52;2.78;;;0.63;;
54193;SDS011;40102;50.906;6.972;2023-03-31T00:41:18;3.25;;;0.55;;
54193;SDS011;40102;50.906;6.972;2023-03-31T00:46:53;4.40;;;0.80;;
54193;SDS011;40102;50.906;6.972;2023-03-31T00:49:43;4.28;;;1.17;;
54193;SDS011;40102;50.906;6.972;2023-03-31T00:52:16;3.88;;;0.90;;
54193;SDS011;40102;50.906;6.972;2023-03-31T00:54:46;1.58;;;0.70;;
54193;SDS011;40102;50.906;6.972;2023-03-31T00:57:25;2.58;;;0.57;;
54193;SDS011;40102;50.906;6.972;2023-03-31T00:59:53;2.85;;;0.70;;
54193;SDS011;40102;50.906;6.972;2023-03-31T01:02:24;3.30;;;0.55;;
54193;SDS011;40102;50.906;6.972;2023-03-31T01:04:51;2.30;;;0.73;;
54193;SDS011;40102;50.906;6.972;2023-03-31T01:09:47;3.20;;;1.23;;
54193;SDS011;40102;50.906;6.972;2023-03-31T01:12:14;5.15;;;0.75;;
54193;SDS011;40102;50.906;6.972;2023-03-31T01:14:42;2.20;;;0.70;;
54193;SDS011;40102;50.906;6.972;2023-03-31T01:17:07;7.05;;;0.93;;
54193;SDS011;40102;50.906;6.972;2023-03-31T01:19:43;2.97;;;0.82;;
54193;SDS011;40102;50.906;6.972;2023-03-31T01:25:59;4.03;;;0.88;;
54193;SDS011;40102;50.906;6.972;2023-03-31T01:28:49;5.57;;;0.65;;
54193;SDS011;40102;50.906;6.972;2023-03-31T01:31:31;5.28;;;0.90;;
54193;SDS011;40102;50.906;6.972;2023-03-31T01:37:02;5.90;;;0.80;;
54193;SDS011;40102;50.906;6.972;2023-03-31T01:46:09;6.90;;;1.02;;
54193;SDS011;40102;50.906;6.972;2023-03-31T01:48:52;4.53;;;0.98;;
54193;SDS011;40102;50.906;6.972;2023-03-31T01:56:45;4.88;;;0.77;;
54193;SDS011;40102;50.906;6.972;2023-03-31T01:59:37;6.57;;;0.90;;
54193;SDS011;40102;50.906;6.972;2023-03-31T02:02:12;3.53;;;0.95;;
54193;SDS011;40102;50.906;6.972;2023-03-31T02:04:49;4.80;;;1.25;;
54193;SDS011;40102;50.906;6.972;2023-03-31T02:07:22;4.60;;;1.15;;
54193;SDS011;40102;50.906;6.972;2023-03-31T02:09:55;4.43;;;0.95;;
54193;SDS011;40102;50.906;6.972;2023-03-31T02:12:26;2.92;;;0.95;;
54193;SDS011;40102;50.906;6.972;2023-03-31T02:14:55;4.80;;;0.90;;
54193;SDS011;40102;50.906;6.972;2023-03-31T02:17:25;3.78;;;0.77;;
54193;SDS011;40102;50.906;6.972;2023-03-31T02:19:58;5.15;;;0.85;;
54193;SDS011;40102;50.906;6.972;2023-03-31T02:22:30;5.53;;;0.90;;
54193;SDS011;40102;50.906;6.972;2023-03-31T02:24:59;7.10;;;1.25;;
54193;SDS011;40102;50.906;6.972;2023-03-31T02:27:29;6.03;;;1.35;;
54193;SDS011;40102;50.906;6.972;2023-03-31T02:29:57;6.13;;;1.00;;
54193;SDS011;40102;50.906;6.972;2023-03-31T02:32:26;5.22;;;0.90;;
54193;SDS011;40102;50.906;6.972;2023-03-31T02:34:57;4.18;;;0.90;;
54193;SDS011;40102;50.906;6.972;2023-03-31T02:37:25;7.45;;;1.10;;
54193;SDS011;40102;50.906;6.972;2023-03-31T02:39:53;5.93;;;0.88;;
54193;SDS011;40102;50.906;6.972;2023-03-31T02:42:21;6.40;;;1.10;;
54193;SDS011;40102;50.906;6.972;2023-03-31T02:44:47;5.60;;;1.00;;
54193;SDS011;40102;50.906;6.972;2023-03-31T02:47:14;6.20;;;0.90;;
54193;SDS011;40102;50.906;6.972;2023-03-31T02:49:43;7.03;;;1.30;;
54193;SDS011;40102;50.906;6.972;2023-03-31T02:58:04;3.75;;;1.02;;
54193;SDS011;40102;50.906;6.972;2023-03-31T03:03:28;4.68;;;1.02;;
54193;SDS011;40102;50.906;6.972;2023-03-31T03:11:36;4.53;;;1.05;;
54193;SDS011;40102;50.906;6.972;2023-03-31T03:16:40;3.47;;;1.17;;
54193;SDS011;40102;50.906;6.972;2023-03-31T03:19:09;4.40;;;1.20;;
54193;SDS011;40102;50.906;6.972;2023-03-31T03:21:41;5.60;;;0.90;;
54193;SDS011;40102;50.906;6.972;2023-03-31T03:24:11;4.90;;;0.80;;
54193;SDS011;40102;50.906;6.972;2023-03-31T03:26:38;5.15;;;1.00;;
54193;SDS011;40102;50.906;6.972;2023-03-31T03:29:04;8.82;;;1.00;;
54193;SDS011;40102;50.906;6.972;2023-03-31T03:31:29;5.18;;;1.13;;
54193;SDS011;40102;50.906;6.972;2023-03-31T03:33:58;6.93;;;1.00;;
54193;SDS011;40102;50.906;6.972;2023-03-31T03:36:24;2.75;;;0.82;;
54193;SDS011;40102;50.906;6.972;2023-03-31T03:38:50;5.18;;;1.00;;
54193;SDS011;40102;50.906;6.972;2023-03-31T03:41:16;3.38;;;0.70;;
54193;SDS011;40102;50.906;6.972;2023-03-31T03:43:42;4.03;;;0.88;;
54193;SDS011;40102;50.906;6.972;2023-03-31T03:46:08;5.85;;;1.35;;
54193;SDS011;40102;50.906;6.972;2023-03-31T03:48:33;5.25;;;1.10;;
54193;SDS011;40102;50.906;6.972;2023-03-31T03:50:59;3.90;;;0.80;;
54193;SDS011;40102;50.906;6.972;2023-03-31T03:53:25;7.72;;;1.35;;
54193;SDS011;40102;50.906;6.972;2023-03-31T03:55:52;3.17;;;0.73;;
54193;SDS011;40102;50.906;6.972;2023-03-31T03:58:18;4.00;;;1.05;;
54193;SDS011;40102;50.906;6.972;2023-03-31T04:00:44;3.67;;;0.88;;
54193;SDS011;40102;50.906;6.972;2023-03-31T04:03:12;2.25;;;0.90;;
54193;SDS011;40102;50.906;6.972;2023-03-31T04:05:39;3.92;;;0.80;;
54193;SDS011;40102;50.906;6.972;2023-03-31T04:08:05;3.45;;;0.80;;
54193;SDS011;40102;50.906;6.972;2023-03-31T04:10:32;5.95;;;1.13;;
54193;SDS011;40102;50.906;6.972;2023-03-31T04:12:59;3.38;;;1.10;;
54193;SDS011;40102;50.906;6.972;2023-03-31T04:15:25;7.93;;;1.23;;
54193;SDS011;40102;50.906;6.972;2023-03-31T04:17:50;4.68;;;1.10;;
54193;SDS011;40102;50.906;6.972;2023-03-31T04:20:19;3.35;;;1.00;;
54193;SDS011;40102;50.906;6.972;2023-03-31T04:22:46;3.63;;;1.20;;
54193;SDS011;40102;50.906;6.972;2023-03-31T04:25:15;5.50;;;1.48;;
54193;SDS011;40102;50.906;6.972;2023-03-31T04:27:41;3.08;;;0.90;;
54193;SDS011;40102;50.906;6.972;2023-03-31T04:30:18;3.95;;;0.73;;
54193;SDS011;40102;50.906;6.972;2023-03-31T04:32:49;5.22;;;0.98;;
54193;SDS011;40102;50.906;6.972;2023-03-31T04:35:27;2.97;;;0.88;;
54193;SDS011;40102;50.906;6.972;2023-03-31T04:38:06;3.47;;;0.80;;
54193;SDS011;40102;50.906;6.972;2023-03-31T04:40:33;2.25;;;0.80;;
54193;SDS011;40102;50.906;6.972;2023-03-31T04:42:59;3.60;;;0.90;;
54193;SDS011;40102;50.906;6.972;2023-03-31T04:45:26;4.38;;;1.58;;
54193;SDS011;40102;50.906;6.972;2023-03-31T04:47:52;5.57;;;0.80;;
54193;SDS011;40102;50.906;6.972;2023-03-31T04:50:18;5.00;;;1.17;;
54193;SDS011;40102;50.906;6.972;2023-03-31T04:52:44;2.17;;;0.68;;
54193;SDS011;40102;50.906;6.972;2023-03-31T04:55:10;3.40;;;0.77;;
54193;SDS011;40102;50.906;6.972;2023-03-31T04:57:36;5.05;;;0.90;;
54193;SDS011;40102;50.906;6.972;2023-03-31T05:00:02;3.90;;;0.80;;
54193;SDS011;40102;50.906;6.972;2023-03-31T05:02:33;2.78;;;0.60;;
54193;SDS011;40102;50.906;6.972;2023-03-31T05:04:58;6.40;;;1.00;;
54193;SDS011;40102;50.906;6.972;2023-03-31T05:07:24;3.72;;;0.85;;
54193;SDS011;40102;50.906;6.972;2023-03-31T05:09:50;1.20;;;0.68;;
54193;SDS011;40102;50.906;6.972;2023-03-31T05:12:16;2.58;;;0.65;;
54193;SDS011;40102;50.906;6.972;2023-03-31T05:14:42;2.05;;;0.60;;
54193;SDS011;40102;50.906;6.972;2023-03-31T05:17:08;3.10;;;0.80;;
54193;SDS011;40102;50.906;6.972;2023-03-31T05:19:34;2.05;;;0.70;;
54193;SDS011;40102;50.906;6.972;2023-03-31T05:22:00;2.40;;;0.82;;
54193;SDS011;40102;50.906;6.972;2023-03-31T05:24:25;2.78;;;0.90;;
54193;SDS011;40102;50.906;6.972;2023-03-31T05:26:52;2.78;;;0.75;;
54193;SDS011;40102;50.906;6.972;2023-03-31T05:29:18;3.38;;;0.82;;
54193;SDS011;40102;50.906;6.972;2023-03-31T05:31:44;3.53;;;0.70;;
54193;SDS011;40102;50.906;6.972;2023-03-31T05:34:10;3.10;;;0.70;;
54193;SDS011;40102;50.906;6.972;2023-03-31T05:36:36;2.90;;;0.70;;
54193;SDS011;40102;50.906;6.972;2023-03-31T05:39:02;3.70;;;0.70;;
54193;SDS011;40102;50.906;6.972;2023-03-31T05:41:29;2.13;;;0.73;;
54193;SDS011;40102;50.906;6.972;2023-03-31T05:43:56;4.07;;;1.10;;
54193;SDS011;40102;50.906;6.972;2023-03-31T05:46:22;2.72;;;0.70;;
54193;SDS011;40102;50.906;6.972;2023-03-31T05:48:48;1.80;;;0.60;;
54193;SDS011;40102;50.906;6.972;2023-03-31T05:51:13;1.08;;;0.50;;
54193;SDS011;40102;50.906;6.972;2023-03-31T05:53:42;1.95;;;0.60;;
54193;SDS011;40102;50.906;6.972;2023-03-31T05:56:09;2.53;;;0.60;;
54193;SDS011;40102;50.906;6.972;2023-03-31T05:58:36;1.02;;;0.50;;
54193;SDS011;40102;50.906;6.972;2023-03-31T06:01:07;2.47;;;0.73;;
54193;SDS011;40102;50.906;6.972;2023-03-31T06:03:35;2.10;;;0.60;;
54193;SDS011;40102;50.906;6.972;2023-03-31T06:06:03;2.42;;;0.40;;
54193;SDS011;40102;50.906;6.972;2023-03-31T06:08:30;0.93;;;0.40;;
54193;SDS011;40102;50.906;6.972;2023-03-31T06:10:59;0.45;;;0.38;;
54193;SDS011;40102;50.906;6.972;2023-03-31T06:13:26;1.70;;;0.40;;
54193;SDS011;40102;50.906;6.972;2023-03-31T06:15:52;1.95;;;0.55;;
54193;SDS011;40102;50.906;6.972;2023-03-31T06:18:20;0.70;;;0.20;;
54193;SDS011;40102;50.906;6.972;2023-03-31T06:20:46;0.60;;;0.35;;
54193;SDS011;40102;50.906;6.972;2023-03-31T06:23:12;1.42;;;0.40;;
54193;SDS011;40102;50.906;6.972;2023-03-31T06:25:38;1.60;;;0.30;;
54193;SDS011;40102;50.906;6.972;2023-03-31T06:28:07;2.03;;;0.45;;
54193;SDS011;40102;50.906;6.972;2023-03-31T06:30:33;0.80;;;0.40;;
54193;SDS011;40102;50.906;6.972;2023-03-31T06:32:59;2.10;;;0.40;;
54193;SDS011;40102;50.906;6.972;2023-03-31T06:35:26;1.33;;;0.52;;
54193;SDS011;40102;50.906;6.972;2023-03-31T06:37:52;2.72;;;0.30;;
54193;SDS011;40102;50.906;6.972;2023-03-31T06:40:18;0.40;;;0.30;;
54193;SDS011;40102;50.906;6.972;2023-03-31T06:42:43;0.65;;;0.30;;
54193;SDS011;40102;50.906;6.972;2023-03-31T06:45:09;0.88;;;0.40;;
54193;SDS011;40102;50.906;6.972;2023-03-31T06:47:35;1.35;;;0.40;;
54193;SDS011;40102;50.906;6.972;2023-03-31T06:52:33;0.50;;;0.28;;
54193;SDS011;40102;50.906;6.972;2023-03-31T06:54:59;0.28;;;0.20;;
54193;SDS011;40102;50.906;6.972;2023-03-31T06:57:25;2.35;;;0.40;;
54193;SDS011;40102;50.906;6.972;2023-03-31T06:59:51;1.23;;;0.40;;
54193;SDS011;40102;50.906;6.972;2023-03-31T07:02:17;0.30;;;0.20;;
54193;SDS011;40102;50.906;6.972;2023-03-31T07:04:42;0.45;;;0.40;;
54193;SDS011;40102;50.906;6.972;2023-03-31T07:07:08;1.65;;;0.40;;
54193;SDS011;40102;50.906;6.972;2023-03-31T07:09:34;0.20;;;0.20;;
54193;SDS011;40102;50.906;6.972;2023-03-31T07:12:00;0.77;;;0.20;;
54193;SDS011;40102;50.906;6.972;2023-03-31T07:14:30;0.70;;;0.25;;
54193;SDS011;40102;50.906;6.972;2023-03-31T07:16:57;1.63;;;0.40;;
54193;SDS011;40102;50.906;6.972;2023-03-31T07:19:23;2.92;;;0.40;;
54193;SDS011;40102;50.906;6.972;2023-03-31T07:21:49;0.52;;;0.30;;
54193;SDS011;40102;50.906;6.972;2023-03-31T07:24:15;1.42;;;0.28;;
54193;SDS011;40102;50.906;6.972;2023-03-31T07:26:42;0.55;;;0.30;;
54193;SDS011;40102;50.906;6.972;2023-03-31T07:29:07;0.68;;;0.30;;
54193;SDS011;40102;50.906;6.972;2023-03-31T07:31:33;0.55;;;0.30;;
54193;SDS011;40102;50.906;6.972;2023-03-31T07:34:00;0.95;;;0.40;;
54193;SDS011;40102;50.906;6.972;2023-03-31T07:36:27;1.08;;;0.30;;
54193;SDS011;40102;50.906;6.972;2023-03-31T07:38:52;2.30;;;0.30;;
54193;SDS011;40102;50.906;6.972;2023-03-31T07:41:19;0.52;;;0.25;;
54193;SDS011;40102;50.906;6.972;2023-03-31T07:43:46;0.40;;;0.30;;
54193;SDS011;40102;50.906;6.972;2023-03-31T07:46:18;0.93;;;0.28;;
54193;SDS011;40102;50.906;6.972;2023-03-31T07:48:48;0.68;;;0.30;;
54193;SDS011;40102;50.906;6.972;2023-03-31T07:51:16;1.52;;;0.30;;
54193;SDS011;40102;50.906;6.972;2023-03-31T07:53:43;0.75;;;0.40;;
54193;SDS011;40102;50.906;6.972;2023-03-31T07:56:10;0.45;;;0.30;;
54193;SDS011;40102;50.906;6.972;2023-03-31T07:58:35;0.98;;;0.52;;
54193;SDS011;40102;50.906;6.972;2023-03-31T08:01:01;0.95;;;0.40;;
54193;SDS011;40102;50.906;6.972;2023-03-31T08:03:28;0.93;;;0.30;;
54193;SDS011;40102;50.906;6.972;2023-03-31T08:05:56;2.55;;;0.60;;
54193;SDS011;40102;50.906;6.972;2023-03-31T08:08:22;2.15;;;0.30;;
54193;SDS011;40102;50.906;6.972;2023-03-31T08:10:48;2.47;;;0.47;;
54193;SDS011;40102;50.906;6.972;2023-03-31T08:13:14;2.38;;;0.43;;
54193;SDS011;40102;50.906;6.972;2023-03-31T08:15:40;3.20;;;0.40;;
54193;SDS011;40102;50.906;6.972;2023-03-31T08:18:07;2.95;;;0.40;;
54193;SDS011;40102;50.906;6.972;2023-03-31T08:20:32;2.80;;;0.82;;
54193;SDS011;40102;50.906;6.972;2023-03-31T08:22:58;0.47;;;0.30;;
54193;SDS011;40102;50.906;6.972;2023-03-31T08:25:24;3.50;;;0.50;;
54193;SDS011;40102;50.906;6.972;2023-03-31T08:27:50;1.75;;;0.50;;
54193;SDS011;40102;50.906;6.972;2023-03-31T08:30:16;1.40;;;0.50;;
54193;SDS011;40102;50.906;6.972;2023-03-31T08:32:43;2.00;;;0.60;;
54193;SDS011;40102;50.906;6.972;2023-03-31T08:35:09;3.17;;;0.50;;
54193;SDS011;40102;50.906;6.972;2023-03-31T08:37:36;3.00;;;0.70;;
54193;SDS011;40102;50.906;6.972;2023-03-31T08:40:04;2.65;;;0.50;;
54193;SDS011;40102;50.906;6.972;2023-03-31T08:47:43;5.20;;;1.00;;
54193;SDS011;40102;50.906;6.972;2023-03-31T08:50:15;4.68;;;0.85;;
54193;SDS011;40102;50.906;6.972;2023-03-31T08:52:47;4.05;;;0.80;;
54193;SDS011;40102;50.906;6.972;2023-03-31T08:55:26;2.92;;;0.73;;
54193;SDS011;40102;50.906;6.972;2023-03-31T08:58:01;3.60;;;0.65;;
54193;SDS011;40102;50.906;6.972;2023-03-31T09:01:18;2.17;;;0.70;;
54193;SDS011;40102;50.906;6.972;2023-03-31T09:03:28;6.10;;;0.80;;
54193;SDS011;40102;50.906;6.972;2023-03-31T09:06:07;4.82;;;0.95;;
54193;SDS011;40102;50.906;6.972;2023-03-31T09:08:43;4.63;;;0.93;;
54193;SDS011;40102;50.906;6.972;2023-03-31T09:11:12;7.43;;;0.95;;
54193;SDS011;40102;50.906;6.972;2023-03-31T09:14:09;8.32;;;1.10;;
54193;SDS011;40102;50.906;6.972;2023-03-31T09:16:38;6.13;;;0.88;;
54193;SDS011;40102;50.906;6.972;2023-03-31T09:19:38;6.05;;;1.25;;
54193;SDS011;40102;50.906;6.972;2023-03-31T09:22:14;4.55;;;0.88;;
54193;SDS011;40102;50.906;6.972;2023-03-31T09:24:56;5.47;;;0.90;;
54193;SDS011;40102;50.906;6.972;2023-03-31T09:27:32;4.35;;;1.15;;
54193;SDS011;40102;50.906;6.972;2023-03-31T09:32:39;7.50;;;1.10;;
54193;SDS011;40102;50.906;6.972;2023-03-31T09:35:12;5.95;;;1.00;;
54193;SDS011;40102;50.906;6.972;2023-03-31T09:37:43;5.50;;;1.05;;
54193;SDS011;40102;50.906;6.972;2023-03-31T09:40:13;4.18;;;0.93;;
54193;SDS011;40102;50.906;6.972;2023-03-31T09:42:44;6.72;;;1.20;;
54193;SDS011;40102;50.906;6.972;2023-03-31T09:45:17;7.15;;;1.73;;
54193;SDS011;40102;50.906;6.972;2023-03-31T09:47:45;5.55;;;0.90;;
54193;SDS011;40102;50.906;6.972;2023-03-31T09:50:14;4.82;;;1.15;;
54193;SDS011;40102;50.906;6.972;2023-03-31T09:52:42;4.50;;;0.95;;
54193;SDS011;40102;50.906;6.972;2023-03-31T09:57:59;7.15;;;0.73;;
54193;SDS011;40102;50.906;6.972;2023-03-31T10:00:25;6.68;;;1.33;;
54193;SDS011;40102;50.906;6.972;2023-03-31T10:02:54;6.75;;;0.93;;
54193;SDS011;40102;50.906;6.972;2023-03-31T10:05:32;6.28;;;1.10;;
54193;SDS011;40102;50.906;6.972;2023-03-31T10:10:54;5.32;;;1.10;;
54193;SDS011;40102;50.906;6.972;2023-03-31T10:13:26;7.32;;;1.45;;
54193;SDS011;40102;50.906;6.972;2023-03-31T10:16:02;4.82;;;1.17;;
54193;SDS011;40102;50.906;6.972;2023-03-31T10:18:35;8.05;;;1.73;;
54193;SDS011;40102;50.906;6.972;2023-03-31T10:21:03;6.53;;;1.33;;
54193;SDS011;40102;50.906;6.972;2023-03-31T10:23:31;8.80;;;1.63;;
54193;SDS011;40102;50.906;6.972;2023-03-31T10:25:58;4.03;;;0.80;;
54193;SDS011;40102;50.906;6.972;2023-03-31T10:28:26;5.43;;;1.10;;
54193;SDS011;40102;50.906;6.972;2023-03-31T10:30:57;5.10;;;1.15;;
54193;SDS011;40102;50.906;6.972;2023-03-31T10:33:31;6.07;;;1.20;;
54193;SDS011;40102;50.906;6.972;2023-03-31T10:36:00;3.85;;;0.90;;
54193;SDS011;40102;50.906;6.972;2023-03-31T10:38:36;5.25;;;1.58;;
54193;SDS011;40102;50.906;6.972;2023-03-31T10:41:04;7.60;;;0.98;;
54193;SDS011;40102;50.906;6.972;2023-03-31T10:43:46;7.40;;;0.95;;
54193;SDS011;40102;50.906;6.972;2023-03-31T10:46:16;7.28;;;2.38;;
54193;SDS011;40102;50.906;6.972;2023-03-31T10:48:42;8.15;;;0.90;;
54193;SDS011;40102;50.906;6.972;2023-03-31T10:53:44;3.85;;;0.80;;
54193;SDS011;40102;50.906;6.972;2023-03-31T11:09:50;3.42;;;0.57;;
54193;SDS011;40102;50.906;6.972;2023-03-31T11:13:18;1.15;;;0.35;;
54193;SDS011;40102;50.906;6.972;2023-03-31T11:18:03;2.45;;;0.40;;
54193;SDS011;40102;50.906;6.972;2023-03-31T11:20:35;2.33;;;0.50;;
54193;SDS011;40102;50.906;6.972;2023-03-31T11:23:13;3.97;;;0.50;;
54193;SDS011;40102;50.906;6.972;2023-03-31T11:25:54;3.78;;;0.60;;
54193;SDS011;40102;50.906;6.972;2023-03-31T11:30:57;4.90;;;0.75;;
54193;SDS011;40102;50.906;6.972;2023-03-31T11:36:24;2.90;;;0.60;;
54193;SDS011;40102;50.906;6.972;2023-03-31T11:39:02;6.43;;;1.77;;
54193;SDS011;40102;50.906;6.972;2023-03-31T11:44:13;4.93;;;0.90;;
54193;SDS011;40102;50.906;6.972;2023-03-31T11:47:00;6.35;;;1.05;;
54193;SDS011;40102;50.906;6.972;2023-03-31T11:49:40;7.20;;;1.67;;
54193;SDS011;40102;50.906;6.972;2023-03-31T11:52:12;3.60;;;0.88;;
54193;SDS011;40102;50.906;6.972;2023-03-31T11:57:29;8.65;;;1.10;;
54193;SDS011;40102;50.906;6.972;2023-03-31T12:00:05;5.63;;;1.33;;
54193;SDS011;40102;50.906;6.972;2023-03-31T12:02:37;4.63;;;0.95;;
54193;SDS011;40102;50.906;6.972;2023-03-31T12:05:15;5.90;;;1.25;;
54193;SDS011;40102;50.906;6.972;2023-03-31T12:07:47;3.38;;;0.98;;
54193;SDS011;40102;50.906;6.972;2023-03-31T12:10:27;8.70;;;1.45;;
54193;SDS011;40102;50.906;6.972;2023-03-31T12:13:04;3.03;;;0.90;;
54193;SDS011;40102;50.906;6.972;2023-03-31T12:15:41;3.53;;;0.90;;
54193;SDS011;40102;50.906;6.972;2023-03-31T12:20:56;7.93;;;1.90;;
54193;SDS011;40102;50.906;6.972;2023-03-31T12:23:27;5.32;;;0.85;;
54193;SDS011;40102;50.906;6.972;2023-03-31T12:28:42;4.57;;;0.88;;
54193;SDS011;40102;50.906;6.972;2023-03-31T12:31:10;6.97;;;0.90;;
54193;SDS011;40102;50.906;6.972;2023-03-31T12:33:45;5.13;;;0.95;;
54193;SDS011;40102;50.906;6.972;2023-03-31T12:36:31;7.40;;;0.85;;
54193;SDS011;40102;50.906;6.972;2023-03-31T12:46:47;6.40;;;0.90;;
54193;SDS011;40102;50.906;6.972;2023-03-31T12:51:57;4.60;;;0.98;;
54193;SDS011;40102;50.906;6.972;2023-03-31T12:57:25;4.75;;;1.10;;
54193;SDS011;40102;50.906;6.972;2023-03-31T13:02:38;3.83;;;0.80;;
54193;SDS011;40102;50.906;6.972;2023-03-31T13:08:07;4.53;;;0.90;;
54193;SDS011;40102;50.906;6.972;2023-03-31T13:10:54;3.35;;;0.90;;
54193;SDS011;40102;50.906;6.972;2023-03-31T13:13:22;5.00;;;0.85;;
54193;SDS011;40102;50.906;6.972;2023-03-31T13:15:53;4.13;;;0.87;;
54193;SDS011;40102;50.906;6.972;2023-03-31T13:18:20;7.38;;;1.25;;
54193;SDS011;40102;50.906;6.972;2023-03-31T13:20:56;5.72;;;1.00;;
54193;SDS011;40102;50.906;6.972;2023-03-31T13:23:28;5.22;;;0.82;;
54193;SDS011;40102;50.906;6.972;2023-03-31T13:25:58;4.88;;;0.80;;
54193;SDS011;40102;50.906;6.972;2023-03-31T13:28:31;8.20;;;1.10;;
54193;SDS011;40102;50.906;6.972;2023-03-31T13:31:01;5.43;;;1.10;;
54193;SDS011;40102;50.906;6.972;2023-03-31T13:42:08;3.42;;;0.80;;
54193;SDS011;40102;50.906;6.972;2023-03-31T13:45:08;4.63;;;0.93;;
54193;SDS011;40102;50.906;6.972;2023-03-31T13:47:39;3.90;;;0.95;;
54193;SDS011;40102;50.906;6.972;2023-03-31T13:56:03;2.85;;;0.63;;
54193;SDS011;40102;50.906;6.972;2023-03-31T13:58:42;4.28;;;0.77;;
54193;SDS011;40102;50.906;6.972;2023-03-31T14:04:05;3.30;;;0.70;;
54193;SDS011;40102;50.906;6.972;2023-03-31T14:06:43;4.57;;;0.80;;
54193;SDS011;40102;50.906;6.972;2023-03-31T14:09:23;3.88;;;1.02;;
54193;SDS011;40102;50.906;6.972;2023-03-31T14:11:53;2.88;;;0.90;;
54193;SDS011;40102;50.906;6.972;2023-03-31T14:14:18;4.47;;;0.70;;
54193;SDS011;40102;50.906;6.972;2023-03-31T14:16:45;4.68;;;0.90;;
54193;SDS011;40102;50.906;6.972;2023-03-31T14:27:19;5.95;;;1.20;;
54193;SDS011;40102;50.906;6.972;2023-03-31T14:35:53;2.67;;;0.50;;
54193;SDS011;40102;50.906;6.972;2023-03-31T14:40:52;2.13;;;0.82;;
54193;SDS011;40102;50.906;6.972;2023-03-31T14:43:21;1.67;;;0.52;;
54193;SDS011;40102;50.906;6.972;2023-03-31T14:46:02;1.13;;;0.45;;
54193;SDS011;40102;50.906;6.972;2023-03-31T14:48:33;0.63;;;0.40;;
54193;SDS011;40102;50.906;6.972;2023-03-31T14:51:07;2.55;;;0.47;;
54193;SDS011;40102;50.906;6.972;2023-03-31T14:53:34;2.80;;;0.40;;
54193;SDS011;40102;50.906;6.972;2023-03-31T14:56:04;5.20;;;0.50;;
54193;SDS011;40102;50.906;6.972;2023-03-31T14:58:33;2.97;;;0.50;;
54193;SDS011;40102;50.906;6.972;2023-03-31T15:01:08;4.43;;;0.55;;
54193;SDS011;40102;50.906;6.972;2023-03-31T15:03:41;4.03;;;1.10;;
54193;SDS011;40102;50.906;6.972;2023-03-31T15:06:08;3.40;;;0.85;;
54193;SDS011;40102;50.906;6.972;2023-03-31T15:08:35;1.90;;;0.40;;
54193;SDS011;40102;50.906;6.972;2023-03-31T15:11:07;3.67;;;0.77;;
54193;SDS011;40102;50.906;6.972;2023-03-31T15:13:42;3.17;;;0.70;;
54193;SDS011;40102;50.906;6.972;2023-03-31T15:16:19;2.30;;;0.70;;
54193;SDS011;40102;50.906;6.972;2023-03-31T15:18:45;4.70;;;0.80;;
54193;SDS011;40102;50.906;6.972;2023-03-31T15:21:33;4.75;;;1.02;;
54193;SDS011;40102;50.906;6.972;2023-03-31T15:24:02;4.45;;;0.88;;
54193;SDS011;40102;50.906;6.972;2023-03-31T15:26:31;3.15;;;0.70;;
54193;SDS011;40102;50.906;6.972;2023-03-31T15:29:44;3.50;;;0.73;;
54193;SDS011;40102;50.906;6.972;2023-03-31T15:31:59;3.28;;;0.47;;
54193;SDS011;40102;50.906;6.972;2023-03-31T15:34:26;2.15;;;0.50;;
54193;SDS011;40102;50.906;6.972;2023-03-31T15:36:57;2.08;;;0.45;;
54193;SDS011;40102;50.906;6.972;2023-03-31T15:39:24;1.73;;;0.70;;
54193;SDS011;40102;50.906;6.972;2023-03-31T15:41:52;5.22;;;1.05;;
54193;SDS011;40102;50.906;6.972;2023-03-31T15:46:59;4.03;;;0.85;;
54193;SDS011;40102;50.906;6.972;2023-03-31T15:49:53;12.68;;;1.05;;
54193;SDS011;40102;50.906;6.972;2023-03-31T15:52:26;2.05;;;0.68;;
54193;SDS011;40102;50.906;6.972;2023-03-31T15:54:51;1.38;;;0.40;;
54193;SDS011;40102;50.906;6.972;2023-03-31T15:57:17;2.05;;;0.32;;
54193;SDS011;40102;50.906;6.972;2023-03-31T16:02:16;3.22;;;0.98;;
54193;SDS011;40102;50.906;6.972;2023-03-31T16:04:47;1.63;;;0.43;;
54193;SDS011;40102;50.906;6.972;2023-03-31T16:07:15;1.80;;;0.55;;
54193;SDS011;40102;50.906;6.972;2023-03-31T16:09:54;2.42;;;0.50;;
54193;SDS011;40102;50.906;6.972;2023-03-31T16:15:09;2.60;;;0.38;;
54193;SDS011;40102;50.906;6.972;2023-03-31T16:17:54;1.48;;;0.40;;
54193;SDS011;40102;50.906;6.972;2023-03-31T16:20:30;4.85;;;0.63;;
54193;SDS011;40102;50.906;6.972;2023-03-31T16:23:10;1.52;;;0.40;;
54193;SDS011;40102;50.906;6.972;2023-03-31T16:25:39;4.00;;;0.50;;
54193;SDS011;40102;50.906;6.972;2023-03-31T16:28:06;2.22;;;0.50;;
54193;SDS011;40102;50.906;6.972;2023-03-31T16:30:37;1.08;;;0.65;;
54193;SDS011;40102;50.906;6.972;2023-03-31T16:33:05;3.65;;;0.65;;
54193;SDS011;40102;50.906;6.972;2023-03-31T16:35:36;2.70;;;0.60;;
54193;SDS011;40102;50.906;6.972;2023-03-31T16:38:04;2.22;;;0.60;;
54193;SDS011;40102;50.906;6.972;2023-03-31T16:40:34;1.60;;;0.50;;
54193;SDS011;40102;50.906;6.972;2023-03-31T16:43:06;3.42;;;0.60;;
54193;SDS011;40102;50.906;6.972;2023-03-31T16:45:40;3.28;;;0.95;;
54193;SDS011;40102;50.906;6.972;2023-03-31T16:48:08;2.58;;;0.77;;
54193;SDS011;40102;50.906;6.972;2023-03-31T16:50:34;2.20;;;0.80;;
54193;SDS011;40102;50.906;6.972;2023-03-31T16:52:59;4.95;;;0.70;;
54193;SDS011;40102;50.906;6.972;2023-03-31T16:55:25;2.03;;;0.60;;
54193;SDS011;40102;50.906;6.972;2023-03-31T16:57:51;1.98;;;0.40;;
54193;SDS011;40102;50.906;6.972;2023-03-31T17:00:17;2.92;;;0.55;;
54193;SDS011;40102;50.906;6.972;2023-03-31T17:02:43;1.70;;;0.50;;
54193;SDS011;40102;50.906;6.972;2023-03-31T17:05:08;2.90;;;0.60;;
54193;SDS011;40102;50.906;6.972;2023-03-31T17:07:33;2.50;;;0.50;;
54193;SDS011;40102;50.906;6.972;2023-03-31T17:09:59;2.05;;;0.40;;
54193;SDS011;40102;50.906;6.972;2023-03-31T17:12:24;3.03;;;0.45;;
54193;SDS011;40102;50.906;6.972;2023-03-31T17:14:50;1.67;;;0.70;;
54193;SDS011;40102;50.906;6.972;2023-03-31T17:17:15;2.35;;;0.60;;
54193;SDS011;40102;50.906;6.972;2023-03-31T17:19:41;4.55;;;0.60;;
54193;SDS011;40102;50.906;6.972;2023-03-31T17:22:06;2.08;;;0.50;;
54193;SDS011;40102;50.906;6.972;2023-03-31T17:24:32;1.98;;;0.80;;
54193;SDS011;40102;50.906;6.972;2023-03-31T17:26:57;2.78;;;0.60;;
54193;SDS011;40102;50.906;6.972;2023-03-31T17:29:23;1.27;;;0.40;;
54193;SDS011;40102;50.906;6.972;2023-03-31T17:31:48;3.15;;;0.60;;
54193;SDS011;40102;50.906;6.972;2023-03-31T17:34:14;1.60;;;0.40;;
54193;SDS011;40102;50.906;6.972;2023-03-31T17:36:40;2.35;;;0.65;;
54193;SDS011;40102;50.906;6.972;2023-03-31T17:39:08;2.80;;;0.85;;
54193;SDS011;40102;50.906;6.972;2023-03-31T17:41:34;1.17;;;0.52;;